sensor_id;sensor_type;location;lat;lon;timestamp;P1;durP1;ratioP1;P2;durP2;ratioP2
5702;SDS011;2876;51.738;10.050;2024-03-02T00:02:18;27.50;;;17.00;;
5702;SDS011;2876;51.738;10.050;2024-03-02T00:08:24;32.77;;;17.60;;
5702;SDS011;2876;51.738;10.050;2024-03-02T00:14:30;31.30;;;18.63;;
5702;SDS011;2876;51.738;10.050;2024-03-02T00:20:32;30.30;;;17.80;;
5702;SDS011;2876;51.738;10.050;2024-03-02T00:26:34;31.00;;;17.07;;
5702;SDS011;2876;51.738;10.050;2024-03-02T00:32:36;26.73;;;16.60;;
5702;SDS011;2876;51.738;10.050;2024-03-02T00:38:47;28.00;;;18.23;;
5702;SDS011;2876;51.738;10.050;2024-03-02T00:44:52;36.23;;;15.73;;
5702;SDS011;2876;51.738;10.050;2024-03-02T00:50:54;34.47;;;18.20;;
5702;SDS011;2876;51.738;10.050;2024-03-02T00:56:56;25.00;;;16.70;;
5702;SDS011;2876;51.738;10.050;2024-03-02T01:02:58;29.87;;;17.00;;
5702;SDS011;2876;51.738;10.050;2024-03-02T01:09:01;30.47;;;16.80;;
5702;SDS011;2876;51.738;10.050;2024-03-02T01:15:04;30.33;;;17.30;;
5702;SDS011;2876;51.738;10.050;2024-03-02T01:21:09;29.27;;;17.63;;
5702;SDS011;2876;51.738;10.050;2024-03-02T01:27:11;30.10;;;17.70;;
5702;SDS011;2876;51.738;10.050;2024-03-02T01:33:13;30.47;;;17.87;;
5702;SDS011;2876;51.738;10.050;2024-03-02T01:39:15;27.43;;;16.60;;
5702;SDS011;2876;51.738;10.050;2024-03-02T01:45:17;34.83;;;18.90;;
5702;SDS011;2876;51.738;10.050;2024-03-02T01:51:19;31.97;;;17.00;;
5702;SDS011;2876;51.738;10.050;2024-03-02T01:57:21;29.40;;;17.07;;
5702;SDS011;2876;51.738;10.050;2024-03-02T02:03:23;31.67;;;17.73;;
5702;SDS011;2876;51.738;10.050;2024-03-02T02:09:25;34.17;;;17.27;;
5702;SDS011;2876;51.738;10.050;2024-03-02T02:15:28;26.43;;;16.93;;
5702;SDS011;2876;51.738;10.050;2024-03-02T02:21:32;29.47;;;17.50;;
5702;SDS011;2876;51.738;10.050;2024-03-02T02:27:34;34.93;;;17.23;;
5702;SDS011;2876;51.738;10.050;2024-03-02T02:33:38;31.57;;;19.00;;
5702;SDS011;2876;51.738;10.050;2024-03-02T02:39:41;36.57;;;18.47;;
5702;SDS011;2876;51.738;10.050;2024-03-02T02:45:43;30.60;;;20.37;;
5702;SDS011;2876;51.738;10.050;2024-03-02T02:51:46;31.80;;;18.40;;
5702;SDS011;2876;51.738;10.050;2024-03-02T02:57:48;32.83;;;17.63;;
5702;SDS011;2876;51.738;10.050;2024-03-02T03:03:50;34.23;;;16.13;;
5702;SDS011;2876;51.738;10.050;2024-03-02T03:09:52;33.27;;;18.90;;
5702;SDS011;2876;51.738;10.050;2024-03-02T03:15:54;28.37;;;17.50;;
5702;SDS011;2876;51.738;10.050;2024-03-02T03:21:56;31.53;;;16.17;;
5702;SDS011;2876;51.738;10.050;2024-03-02T03:27:58;28.50;;;16.10;;
5702;SDS011;2876;51.738;10.050;2024-03-02T03:34:00;28.27;;;16.17;;
5702;SDS011;2876;51.738;10.050;2024-03-02T03:40:02;28.37;;;16.23;;
5702;SDS011;2876;51.738;10.050;2024-03-02T03:46:11;29.77;;;16.87;;
5702;SDS011;2876;51.738;10.050;2024-03-02T03:52:13;27.77;;;16.07;;
5702;SDS011;2876;51.738;10.050;2024-03-02T03:58:15;29.60;;;16.50;;
5702;SDS011;2876;51.738;10.050;2024-03-02T04:04:22;32.47;;;16.67;;
5702;SDS011;2876;51.738;10.050;2024-03-02T04:10:24;37.87;;;18.63;;
5702;SDS011;2876;51.738;10.050;2024-03-02T04:16:26;25.47;;;16.40;;
5702;SDS011;2876;51.738;10.050;2024-03-02T04:22:29;30.93;;;16.60;;
5702;SDS011;2876;51.738;10.050;2024-03-02T04:28:33;28.70;;;16.57;;
5702;SDS011;2876;51.738;10.050;2024-03-02T04:34:35;35.10;;;19.47;;
5702;SDS011;2876;51.738;10.050;2024-03-02T04:40:37;31.07;;;17.50;;
5702;SDS011;2876;51.738;10.050;2024-03-02T04:46:39;29.90;;;18.10;;
5702;SDS011;2876;51.738;10.050;2024-03-02T04:52:41;33.57;;;18.70;;
5702;SDS011;2876;51.738;10.050;2024-03-02T04:58:43;32.00;;;18.03;;
5702;SDS011;2876;51.738;10.050;2024-03-02T05:04:45;33.27;;;18.97;;
5702;SDS011;2876;51.738;10.050;2024-03-02T05:10:49;29.23;;;17.27;;
5702;SDS011;2876;51.738;10.050;2024-03-02T05:16:51;35.10;;;18.87;;
5702;SDS011;2876;51.738;10.050;2024-03-02T05:22:53;29.13;;;17.20;;
5702;SDS011;2876;51.738;10.050;2024-03-02T05:28:55;28.40;;;16.53;;
5702;SDS011;2876;51.738;10.050;2024-03-02T05:34:57;27.23;;;16.70;;
5702;SDS011;2876;51.738;10.050;2024-03-02T05:40:59;24.40;;;16.73;;
5702;SDS011;2876;51.738;10.050;2024-03-02T05:47:01;27.57;;;16.27;;
5702;SDS011;2876;51.738;10.050;2024-03-02T05:53:03;33.90;;;17.60;;
5702;SDS011;2876;51.738;10.050;2024-03-02T05:59:05;32.57;;;18.27;;
5702;SDS011;2876;51.738;10.050;2024-03-02T06:05:17;36.40;;;19.50;;
5702;SDS011;2876;51.738;10.050;2024-03-02T06:11:20;32.70;;;18.20;;
5702;SDS011;2876;51.738;10.050;2024-03-02T06:17:22;36.13;;;19.30;;
5702;SDS011;2876;51.738;10.050;2024-03-02T06:23:24;35.63;;;17.47;;
5702;SDS011;2876;51.738;10.050;2024-03-02T06:29:26;32.17;;;19.20;;
5702;SDS011;2876;51.738;10.050;2024-03-02T06:35:28;31.87;;;19.30;;
5702;SDS011;2876;51.738;10.050;2024-03-02T06:41:30;30.60;;;18.30;;
5702;SDS011;2876;51.738;10.050;2024-03-02T06:47:32;33.23;;;19.00;;
5702;SDS011;2876;51.738;10.050;2024-03-02T06:53:34;36.47;;;19.33;;
5702;SDS011;2876;51.738;10.050;2024-03-02T06:59:36;31.90;;;18.60;;
5702;SDS011;2876;51.738;10.050;2024-03-02T07:05:38;35.33;;;18.73;;
5702;SDS011;2876;51.738;10.050;2024-03-02T07:11:40;40.10;;;20.17;;
5702;SDS011;2876;51.738;10.050;2024-03-02T07:17:42;31.70;;;18.80;;
5702;SDS011;2876;51.738;10.050;2024-03-02T07:23:44;31.97;;;18.60;;
5702;SDS011;2876;51.738;10.050;2024-03-02T07:29:46;33.17;;;19.33;;
5702;SDS011;2876;51.738;10.050;2024-03-02T07:35:48;31.43;;;18.90;;
5702;SDS011;2876;51.738;10.050;2024-03-02T07:41:50;29.40;;;17.63;;
5702;SDS011;2876;51.738;10.050;2024-03-02T07:47:52;28.57;;;17.73;;
5702;SDS011;2876;51.738;10.050;2024-03-02T07:53:54;36.03;;;18.63;;
5702;SDS011;2876;51.738;10.050;2024-03-02T07:59:56;30.80;;;19.00;;
5702;SDS011;2876;51.738;10.050;2024-03-02T08:06:00;30.47;;;19.13;;
5702;SDS011;2876;51.738;10.050;2024-03-02T08:12:02;32.20;;;18.23;;
5702;SDS011;2876;51.738;10.050;2024-03-02T08:18:05;24.57;;;17.43;;
5702;SDS011;2876;51.738;10.050;2024-03-02T08:24:07;35.17;;;18.90;;
5702;SDS011;2876;51.738;10.050;2024-03-02T08:30:10;31.93;;;18.20;;
5702;SDS011;2876;51.738;10.050;2024-03-02T08:36:13;29.77;;;18.20;;
5702;SDS011;2876;51.738;10.050;2024-03-02T08:42:15;24.37;;;16.20;;
5702;SDS011;2876;51.738;10.050;2024-03-02T08:48:17;25.90;;;16.40;;
5702;SDS011;2876;51.738;10.050;2024-03-02T08:54:19;30.73;;;17.67;;
5702;SDS011;2876;51.738;10.050;2024-03-02T09:00:24;27.03;;;16.90;;
5702;SDS011;2876;51.738;10.050;2024-03-02T09:06:26;26.00;;;16.50;;
5702;SDS011;2876;51.738;10.050;2024-03-02T09:12:28;28.13;;;17.47;;
5702;SDS011;2876;51.738;10.050;2024-03-02T09:18:31;27.57;;;16.90;;
5702;SDS011;2876;51.738;10.050;2024-03-02T09:24:33;29.67;;;17.47;;
5702;SDS011;2876;51.738;10.050;2024-03-02T09:30:35;25.13;;;15.60;;
5702;SDS011;2876;51.738;10.050;2024-03-02T09:36:37;26.70;;;14.90;;
5702;SDS011;2876;51.738;10.050;2024-03-02T09:42:39;23.70;;;15.60;;
5702;SDS011;2876;51.738;10.050;2024-03-02T09:48:43;25.30;;;15.07;;
5702;SDS011;2876;51.738;10.050;2024-03-02T09:54:47;23.10;;;15.60;;
5702;SDS011;2876;51.738;10.050;2024-03-02T10:00:49;22.33;;;15.77;;
5702;SDS011;2876;51.738;10.050;2024-03-02T10:06:51;22.47;;;15.20;;
5702;SDS011;2876;51.738;10.050;2024-03-02T10:13:19;22.30;;;15.27;;
5702;SDS011;2876;51.738;10.050;2024-03-02T10:19:26;21.27;;;15.10;;
5702;SDS011;2876;51.738;10.050;2024-03-02T10:25:31;22.53;;;13.83;;
5702;SDS011;2876;51.738;10.050;2024-03-02T10:31:38;22.20;;;15.07;;
5702;SDS011;2876;51.738;10.050;2024-03-02T10:37:41;22.30;;;15.00;;
5702;SDS011;2876;51.738;10.050;2024-03-02T10:43:43;23.93;;;14.80;;
5702;SDS011;2876;51.738;10.050;2024-03-02T10:49:47;22.43;;;15.70;;
5702;SDS011;2876;51.738;10.050;2024-03-02T10:55:55;17.40;;;13.47;;
5702;SDS011;2876;51.738;10.050;2024-03-02T11:02:04;23.93;;;14.30;;
5702;SDS011;2876;51.738;10.050;2024-03-02T11:08:13;16.80;;;11.77;;
5702;SDS011;2876;51.738;10.050;2024-03-02T11:14:21;18.50;;;12.30;;
5702;SDS011;2876;51.738;10.050;2024-03-02T11:20:26;16.03;;;11.97;;
5702;SDS011;2876;51.738;10.050;2024-03-02T11:26:30;18.13;;;12.77;;
5702;SDS011;2876;51.738;10.050;2024-03-02T11:32:41;18.50;;;12.90;;
5702;SDS011;2876;51.738;10.050;2024-03-02T11:38:43;15.27;;;11.23;;
5702;SDS011;2876;51.738;10.050;2024-03-02T11:44:47;13.27;;;9.70;;
5702;SDS011;2876;51.738;10.050;2024-03-02T11:50:50;13.83;;;10.00;;
5702;SDS011;2876;51.738;10.050;2024-03-02T11:56:53;14.50;;;12.10;;
5702;SDS011;2876;51.738;10.050;2024-03-02T12:03:03;15.07;;;11.00;;
5702;SDS011;2876;51.738;10.050;2024-03-02T12:09:09;14.53;;;9.90;;
5702;SDS011;2876;51.738;10.050;2024-03-02T12:15:13;19.70;;;11.50;;
5702;SDS011;2876;51.738;10.050;2024-03-02T12:21:15;13.83;;;10.80;;
5702;SDS011;2876;51.738;10.050;2024-03-02T12:27:17;16.40;;;10.17;;
5702;SDS011;2876;51.738;10.050;2024-03-02T12:33:22;12.87;;;9.03;;
5702;SDS011;2876;51.738;10.050;2024-03-02T12:39:24;13.43;;;10.20;;
5702;SDS011;2876;51.738;10.050;2024-03-02T12:45:28;12.23;;;9.73;;
5702;SDS011;2876;51.738;10.050;2024-03-02T12:51:30;11.47;;;8.43;;
5702;SDS011;2876;51.738;10.050;2024-03-02T12:57:33;12.27;;;8.63;;
5702;SDS011;2876;51.738;10.050;2024-03-02T13:03:36;12.00;;;8.90;;
5702;SDS011;2876;51.738;10.050;2024-03-02T13:09:42;18.83;;;8.90;;
5702;SDS011;2876;51.738;10.050;2024-03-02T13:15:44;11.30;;;8.80;;
5702;SDS011;2876;51.738;10.050;2024-03-02T13:21:46;11.07;;;8.43;;
5702;SDS011;2876;51.738;10.050;2024-03-02T13:27:48;12.60;;;8.80;;
5702;SDS011;2876;51.738;10.050;2024-03-02T13:33:50;13.20;;;8.23;;
5702;SDS011;2876;51.738;10.050;2024-03-02T13:39:52;10.27;;;7.60;;
5702;SDS011;2876;51.738;10.050;2024-03-02T13:45:55;53.90;;;42.13;;
5702;SDS011;2876;51.738;10.050;2024-03-02T13:51:57;11.18;;;8.85;;
5702;SDS011;2876;51.738;10.050;2024-03-02T13:58:01;9.60;;;7.57;;
5702;SDS011;2876;51.738;10.050;2024-03-02T14:04:03;10.70;;;8.90;;
5702;SDS011;2876;51.738;10.050;2024-03-02T14:10:06;11.43;;;7.95;;
5702;SDS011;2876;51.738;10.050;2024-03-02T14:16:10;9.90;;;7.87;;
5702;SDS011;2876;51.738;10.050;2024-03-02T14:22:12;9.30;;;7.60;;
5702;SDS011;2876;51.738;10.050;2024-03-02T14:28:18;11.07;;;8.23;;
5702;SDS011;2876;51.738;10.050;2024-03-02T14:34:40;10.93;;;7.93;;
5702;SDS011;2876;51.738;10.050;2024-03-02T14:40:43;8.83;;;6.57;;
5702;SDS011;2876;51.738;10.050;2024-03-02T14:46:48;9.50;;;6.70;;
5702;SDS011;2876;51.738;10.050;2024-03-02T14:52:50;9.47;;;7.03;;
5702;SDS011;2876;51.738;10.050;2024-03-02T14:58:52;8.63;;;7.17;;
5702;SDS011;2876;51.738;10.050;2024-03-02T15:04:55;9.20;;;6.40;;
5702;SDS011;2876;51.738;10.050;2024-03-02T15:10:57;9.13;;;6.10;;
5702;SDS011;2876;51.738;10.050;2024-03-02T15:17:00;7.40;;;5.87;;
5702;SDS011;2876;51.738;10.050;2024-03-02T15:23:03;10.13;;;6.30;;
5702;SDS011;2876;51.738;10.050;2024-03-02T15:29:05;10.33;;;5.70;;
5702;SDS011;2876;51.738;10.050;2024-03-02T15:35:07;11.00;;;6.33;;
5702;SDS011;2876;51.738;10.050;2024-03-02T15:41:10;10.83;;;7.23;;
5702;SDS011;2876;51.738;10.050;2024-03-02T15:47:12;12.40;;;7.83;;
5702;SDS011;2876;51.738;10.050;2024-03-02T15:53:14;9.30;;;6.87;;
5702;SDS011;2876;51.738;10.050;2024-03-02T15:59:16;8.93;;;6.70;;
5702;SDS011;2876;51.738;10.050;2024-03-02T16:05:18;8.70;;;6.57;;
5702;SDS011;2876;51.738;10.050;2024-03-02T16:11:21;12.40;;;7.83;;
5702;SDS011;2876;51.738;10.050;2024-03-02T16:17:23;10.83;;;7.80;;
5702;SDS011;2876;51.738;10.050;2024-03-02T16:23:25;9.70;;;7.60;;
5702;SDS011;2876;51.738;10.050;2024-03-02T16:29:27;9.20;;;6.50;;
5702;SDS011;2876;51.738;10.050;2024-03-02T16:35:29;10.70;;;6.90;;
5702;SDS011;2876;51.738;10.050;2024-03-02T16:41:31;9.33;;;5.80;;
5702;SDS011;2876;51.738;10.050;2024-03-02T16:47:34;10.20;;;6.47;;
5702;SDS011;2876;51.738;10.050;2024-03-02T16:53:36;9.03;;;5.40;;
5702;SDS011;2876;51.738;10.050;2024-03-02T16:59:39;9.03;;;5.47;;
5702;SDS011;2876;51.738;10.050;2024-03-02T17:05:41;7.53;;;5.00;;
5702;SDS011;2876;51.738;10.050;2024-03-02T17:11:43;9.73;;;4.80;;
5702;SDS011;2876;51.738;10.050;2024-03-02T17:17:46;6.60;;;4.63;;
5702;SDS011;2876;51.738;10.050;2024-03-02T17:23:48;7.03;;;4.40;;
5702;SDS011;2876;51.738;10.050;2024-03-02T17:29:50;9.30;;;4.67;;
5702;SDS011;2876;51.738;10.050;2024-03-02T17:35:52;8.93;;;4.53;;
5702;SDS011;2876;51.738;10.050;2024-03-02T17:41:54;9.20;;;5.17;;
5702;SDS011;2876;51.738;10.050;2024-03-02T17:47:57;8.83;;;5.13;;
5702;SDS011;2876;51.738;10.050;2024-03-02T17:53:59;8.83;;;5.40;;
5702;SDS011;2876;51.738;10.050;2024-03-02T18:00:01;7.80;;;5.10;;
5702;SDS011;2876;51.738;10.050;2024-03-02T18:06:04;7.87;;;5.50;;
5702;SDS011;2876;51.738;10.050;2024-03-02T18:12:07;5.60;;;4.40;;
5702;SDS011;2876;51.738;10.050;2024-03-02T18:18:09;8.13;;;5.17;;
5702;SDS011;2876;51.738;10.050;2024-03-02T18:24:12;9.67;;;4.27;;
5702;SDS011;2876;51.738;10.050;2024-03-02T18:30:14;7.00;;;5.30;;
5702;SDS011;2876;51.738;10.050;2024-03-02T18:36:16;7.83;;;5.50;;
5702;SDS011;2876;51.738;10.050;2024-03-02T18:42:18;9.07;;;5.70;;
5702;SDS011;2876;51.738;10.050;2024-03-02T18:48:20;7.60;;;5.90;;
5702;SDS011;2876;51.738;10.050;2024-03-02T18:54:22;6.77;;;5.37;;
5702;SDS011;2876;51.738;10.050;2024-03-02T19:00:24;11.33;;;6.10;;
5702;SDS011;2876;51.738;10.050;2024-03-02T19:06:27;9.27;;;6.00;;
5702;SDS011;2876;51.738;10.050;2024-03-02T19:12:29;8.03;;;5.67;;
5702;SDS011;2876;51.738;10.050;2024-03-02T19:18:31;7.10;;;6.00;;
5702;SDS011;2876;51.738;10.050;2024-03-02T19:24:37;10.43;;;6.53;;
5702;SDS011;2876;51.738;10.050;2024-03-02T19:30:39;8.60;;;5.70;;
5702;SDS011;2876;51.738;10.050;2024-03-02T19:36:45;8.53;;;6.07;;
5702;SDS011;2876;51.738;10.050;2024-03-02T19:42:47;10.40;;;6.50;;
5702;SDS011;2876;51.738;10.050;2024-03-02T19:48:49;12.10;;;7.40;;
5702;SDS011;2876;51.738;10.050;2024-03-02T19:54:51;13.03;;;8.80;;
5702;SDS011;2876;51.738;10.050;2024-03-02T20:00:53;11.00;;;8.27;;
5702;SDS011;2876;51.738;10.050;2024-03-02T20:06:57;23.93;;;8.40;;
5702;SDS011;2876;51.738;10.050;2024-03-02T20:12:59;14.23;;;8.00;;
5702;SDS011;2876;51.738;10.050;2024-03-02T20:19:06;11.33;;;8.30;;
5702;SDS011;2876;51.738;10.050;2024-03-02T20:25:08;14.53;;;9.80;;
5702;SDS011;2876;51.738;10.050;2024-03-02T20:31:14;17.33;;;9.90;;
5702;SDS011;2876;51.738;10.050;2024-03-02T20:37:16;15.20;;;8.80;;
5702;SDS011;2876;51.738;10.050;2024-03-02T20:43:25;14.83;;;9.30;;
5702;SDS011;2876;51.738;10.050;2024-03-02T20:49:27;15.37;;;10.20;;
5702;SDS011;2876;51.738;10.050;2024-03-02T20:55:31;18.30;;;11.00;;
5702;SDS011;2876;51.738;10.050;2024-03-02T21:01:35;19.83;;;12.50;;
5702;SDS011;2876;51.738;10.050;2024-03-02T21:07:38;20.67;;;12.50;;
5702;SDS011;2876;51.738;10.050;2024-03-02T21:13:40;16.00;;;11.10;;
5702;SDS011;2876;51.738;10.050;2024-03-02T21:19:43;15.57;;;10.63;;
5702;SDS011;2876;51.738;10.050;2024-03-02T21:25:45;16.33;;;10.77;;
5702;SDS011;2876;51.738;10.050;2024-03-02T21:31:50;16.90;;;10.70;;
5702;SDS011;2876;51.738;10.050;2024-03-02T21:37:56;18.20;;;10.10;;
5702;SDS011;2876;51.738;10.050;2024-03-02T21:44:04;14.83;;;10.23;;
5702;SDS011;2876;51.738;10.050;2024-03-02T21:50:06;14.60;;;9.30;;
5702;SDS011;2876;51.738;10.050;2024-03-02T21:56:08;14.37;;;10.03;;
5702;SDS011;2876;51.738;10.050;2024-03-02T22:02:13;21.30;;;10.13;;
5702;SDS011;2876;51.738;10.050;2024-03-02T22:08:15;16.80;;;9.10;;
5702;SDS011;2876;51.738;10.050;2024-03-02T22:14:17;13.00;;;8.97;;
5702;SDS011;2876;51.738;10.050;2024-03-02T22:20:22;23.00;;;11.17;;
5702;SDS011;2876;51.738;10.050;2024-03-02T22:26:24;14.27;;;9.83;;
5702;SDS011;2876;51.738;10.050;2024-03-02T22:32:26;21.07;;;10.63;;
5702;SDS011;2876;51.738;10.050;2024-03-02T22:38:28;21.90;;;9.67;;
5702;SDS011;2876;51.738;10.050;2024-03-02T22:44:30;17.97;;;9.40;;
5702;SDS011;2876;51.738;10.050;2024-03-02T22:50:35;18.20;;;11.83;;
5702;SDS011;2876;51.738;10.050;2024-03-02T22:56:37;15.17;;;10.40;;
5702;SDS011;2876;51.738;10.050;2024-03-02T23:02:39;22.90;;;11.50;;
5702;SDS011;2876;51.738;10.050;2024-03-02T23:08:41;21.70;;;11.87;;
5702;SDS011;2876;51.738;10.050;2024-03-02T23:14:44;24.97;;;13.30;;
5702;SDS011;2876;51.738;10.050;2024-03-02T23:20:46;25.60;;;12.23;;
5702;SDS011;2876;51.738;10.050;2024-03-02T23:26:48;21.47;;;13.00;;
5702;SDS011;2876;51.738;10.050;2024-03-02T23:32:51;19.40;;;12.40;;
5702;SDS011;2876;51.738;10.050;2024-03-02T23:38:53;20.30;;;12.37;;
5702;SDS011;2876;51.738;10.050;2024-03-02T23:44:56;22.97;;;11.77;;
5702;SDS011;2876;51.738;10.050;2024-03-02T23:50:58;23.30;;;13.50;;
5702;SDS011;2876;51.738;10.050;2024-03-02T23:57:00;26.77;;;13.80;;
